createdAt,value
2023-01-01T00:00:52.150Z,54.16
2023-01-01T00:03:20.632Z,54.12
2023-01-01T00:05:49.469Z,53.84
2023-01-01T00:08:18.120Z,54.11
2023-01-01T00:10:46.309Z,53.70
2023-01-01T00:13:14.734Z,53.78
2023-01-01T00:15:44.456Z,54.24
2023-01-01T00:18:12.816Z,54.23
2023-01-01T00:20:41.604Z,53.70
2023-01-01T00:23:10.037Z,53.35
2023-01-01T00:25:38.366Z,53.52
2023-01-01T00:28:07.236Z,53.56
2023-01-01T00:30:35.551Z,53.81
2023-01-01T00:33:05.507Z,53.17
2023-01-01T00:35:35.045Z,53.66
2023-01-01T00:38:03.677Z,53.28
2023-01-01T00:40:31.897Z,53.31
2023-01-01T00:43:00.202Z,52.85
2023-01-01T00:45:28.362Z,53.12
2023-01-01T00:47:56.648Z,53.25
2023-01-01T00:50:26.041Z,53.08
2023-01-01T00:52:54.700Z,52.04
2023-01-01T00:55:23.432Z,52.73
2023-01-01T00:57:51.530Z,52.71
2023-01-01T01:00:20.385Z,52.28
2023-01-01T01:02:48.649Z,52.14
2023-01-01T01:05:17.097Z,52.51
2023-01-01T01:07:47.150Z,51.60
2023-01-01T01:10:15.597Z,51.62
2023-01-01T01:12:43.874Z,52.58
2023-01-01T01:15:12.758Z,52.25
2023-01-01T01:17:41.189Z,51.78
2023-01-01T01:20:11.091Z,52.21
2023-01-01T01:22:39.620Z,51.97
2023-01-01T01:25:11.261Z,51.76
2023-01-01T01:27:40.131Z,51.93
2023-01-01T01:30:09.807Z,52.27
2023-01-01T01:32:38.198Z,51.77
2023-01-01T01:35:07.069Z,51.63
2023-01-01T01:37:35.658Z,52.27
2023-01-01T01:40:04.193Z,51.03
2023-01-01T01:42:34.080Z,51.37
2023-01-01T01:45:03.780Z,51.39
2023-01-01T01:47:36.964Z,51.17
2023-01-01T01:50:10.617Z,51.50
2023-01-01T01:52:42.732Z,50.35
2023-01-01T01:55:11.891Z,51.19
2023-01-01T01:57:42.960Z,50.64
2023-01-01T02:00:13.015Z,51.08
2023-01-01T02:02:49.539Z,50.48
2023-01-01T02:05:20.365Z,50.75
2023-01-01T02:07:48.872Z,50.48
2023-01-01T02:10:17.483Z,50.28
2023-01-01T02:12:47.323Z,50.09
2023-01-01T02:15:15.813Z,49.91
2023-01-01T02:17:52.509Z,49.86
2023-01-01T02:20:30.315Z,49.50
2023-01-01T02:23:17.122Z,50.53
2023-01-01T02:25:57.178Z,49.63
2023-01-01T02:28:42.967Z,50.37
2023-01-01T02:31:21.238Z,50.70
2023-01-01T02:33:53.672Z,50.10
2023-01-01T02:36:25.038Z,49.80
2023-01-01T02:38:58.265Z,49.19
2023-01-01T02:41:29.701Z,49.91
2023-01-01T02:46:32.858Z,50.05
2023-01-01T02:49:07.961Z,50.37
2023-01-01T02:51:47.997Z,50.60
2023-01-01T02:54:26.219Z,50.35
2023-01-01T02:57:05.951Z,50.36
2023-01-01T03:03:19.808Z,50.19
2023-01-01T03:06:14.962Z,49.87
2023-01-01T03:08:54.419Z,49.72
2023-01-01T03:11:25.888Z,50.19
2023-01-01T03:14:00.780Z,50.11
2023-01-01T03:16:35.952Z,49.92
2023-01-01T03:19:13.213Z,49.95
2023-01-01T03:21:49.694Z,49.88
2023-01-01T03:24:23.977Z,49.95
2023-01-01T03:26:56.695Z,49.73
2023-01-01T03:29:27.325Z,49.96
2023-01-01T03:32:00.111Z,49.65
2023-01-01T03:34:34.111Z,49.56
2023-01-01T03:37:07.953Z,49.27
2023-01-01T03:39:39.401Z,49.43
2023-01-01T03:42:18.240Z,49.85
2023-01-01T03:44:50.282Z,49.92
2023-01-01T03:47:20.744Z,48.92
2023-01-01T03:49:49.417Z,49.76
2023-01-01T03:52:32.094Z,49.66
2023-01-01T03:55:07.766Z,49.42
2023-01-01T03:57:45.194Z,48.74
2023-01-01T04:00:16.693Z,48.25
2023-01-01T04:02:53.877Z,48.39
2023-01-01T04:05:23.240Z,48.77
2023-01-01T04:07:53.050Z,47.56
2023-01-01T04:10:22.209Z,48.37
2023-01-01T04:12:52.853Z,47.78
2023-01-01T04:15:24.287Z,49.23
2023-01-01T04:17:54.702Z,48.36
2023-01-01T04:20:23.877Z,48.91
2023-01-01T04:22:53.222Z,48.83
2023-01-01T04:25:21.611Z,49.67
2023-01-01T04:27:50.309Z,49.94
2023-01-01T04:30:19.778Z,50.59
2023-01-01T04:32:48.678Z,49.75
2023-01-01T04:35:18.909Z,49.88
2023-01-01T04:37:47.383Z,49.63
2023-01-01T04:40:15.935Z,50.52
2023-01-01T04:42:44.554Z,49.81
2023-01-01T04:45:15.529Z,50.25
2023-01-01T04:47:44.706Z,50.38
2023-01-01T04:50:13.151Z,49.91
2023-01-01T04:52:42.914Z,49.64
2023-01-01T04:55:11.356Z,49.71
2023-01-01T04:57:39.909Z,49.52
2023-01-01T05:00:09.554Z,50.31
2023-01-01T05:02:37.904Z,49.85
2023-01-01T05:05:06.503Z,51.01
2023-01-01T05:07:34.936Z,50.19
2023-01-01T05:10:05.182Z,49.73
2023-01-01T05:12:33.332Z,49.21
2023-01-01T05:15:01.987Z,49.09
2023-01-01T05:17:30.744Z,48.83
2023-01-01T05:19:59.833Z,49.10
2023-01-01T05:22:28.121Z,49.84
2023-01-01T05:24:56.371Z,48.48
2023-01-01T05:27:26.513Z,48.54
2023-01-01T05:29:54.688Z,48.65
2023-01-01T05:32:23.191Z,49.06
2023-01-01T05:34:51.700Z,49.22
2023-01-01T05:37:20.167Z,50.24
2023-01-01T05:39:49.459Z,51.45
2023-01-01T05:42:19.144Z,51.31
2023-01-01T05:44:48.732Z,51.34
2023-01-01T05:47:18.682Z,51.50
2023-01-01T05:49:48.241Z,50.84
2023-01-01T05:52:24.610Z,51.16
2023-01-01T05:54:54.796Z,51.12
2023-01-01T05:57:23.371Z,50.35
2023-01-01T05:59:53.050Z,50.32
2023-01-01T06:02:22.089Z,50.71
2023-01-01T06:04:51.296Z,51.02
2023-01-01T06:07:19.564Z,50.52
2023-01-01T06:09:47.764Z,50.41
2023-01-01T06:12:16.007Z,49.92
2023-01-01T06:14:44.538Z,51.13
2023-01-01T06:17:14.167Z,50.82
2023-01-01T06:19:42.679Z,51.43
2023-01-01T06:22:11.019Z,50.71
2023-01-01T06:24:39.573Z,51.39
2023-01-01T06:27:08.103Z,51.49
2023-01-01T06:29:36.420Z,52.64
2023-01-01T06:32:04.940Z,53.30
2023-01-01T06:34:34.836Z,52.90
2023-01-01T06:37:06.720Z,54.41
2023-01-01T06:39:35.861Z,53.89
2023-01-01T06:42:04.297Z,53.37
2023-01-01T06:44:32.948Z,53.63
2023-01-01T06:47:01.318Z,52.76
2023-01-01T06:49:29.933Z,53.01
2023-01-01T06:52:00.123Z,53.29
2023-01-01T06:54:28.578Z,52.89
2023-01-01T06:56:57.074Z,51.93
2023-01-01T06:59:25.767Z,52.41
2023-01-01T07:01:54.425Z,51.93
2023-01-01T07:04:23.334Z,53.03
2023-01-01T07:06:51.704Z,52.33
2023-01-01T07:09:21.837Z,52.38
2023-01-01T07:11:50.110Z,52.10
2023-01-01T07:14:18.730Z,52.76
2023-01-01T07:16:47.113Z,51.96
2023-01-01T07:19:15.571Z,52.18
2023-01-01T07:21:46.188Z,53.70
2023-01-01T07:24:17.075Z,53.13
2023-01-01T07:26:47.050Z,52.58
2023-01-01T07:29:15.987Z,51.69
2023-01-01T07:31:45.739Z,52.34
2023-01-01T07:34:16.774Z,51.52
2023-01-01T07:36:45.281Z,51.40
2023-01-01T07:39:13.673Z,51.65
2023-01-01T07:41:42.219Z,50.46
2023-01-01T07:44:12.232Z,51.09
2023-01-01T07:46:40.580Z,51.39
2023-01-01T07:49:09.592Z,50.63
2023-01-01T07:51:38.534Z,48.18
2023-01-01T07:54:07.785Z,45.46
2023-01-01T07:56:36.637Z,44.85
2023-01-01T07:59:05.299Z,45.07
2023-01-01T08:01:37.046Z,43.97
2023-01-01T08:04:06.519Z,43.66
2023-01-01T08:06:35.040Z,45.24
2023-01-01T08:09:03.863Z,44.00
2023-01-01T08:11:32.391Z,46.02
2023-01-01T08:14:00.937Z,44.68
2023-01-01T08:16:29.197Z,45.33
2023-01-01T08:18:59.869Z,45.63
2023-01-01T08:21:28.249Z,43.94
2023-01-01T08:23:56.961Z,44.67
2023-01-01T08:26:30.467Z,46.53
2023-01-01T08:28:59.344Z,47.88
2023-01-01T08:31:28.298Z,47.95
2023-01-01T08:33:58.649Z,48.14
2023-01-01T08:36:27.390Z,48.79
2023-01-01T08:38:56.048Z,48.85
2023-01-01T08:41:24.678Z,50.32
2023-01-01T08:43:53.079Z,49.86
2023-01-01T08:46:21.574Z,50.33
2023-01-01T08:48:50.028Z,50.77
2023-01-01T08:51:20.350Z,50.07
2023-01-01T08:53:51.269Z,50.48
2023-01-01T08:56:21.037Z,51.14
2023-01-01T08:58:50.304Z,50.12
2023-01-01T09:01:21.876Z,49.74
2023-01-01T09:03:50.661Z,50.21
2023-01-01T09:06:20.819Z,49.24
2023-01-01T09:08:49.311Z,49.73
2023-01-01T09:11:24.142Z,49.45
2023-01-01T09:13:53.812Z,49.36
2023-01-01T09:16:23.453Z,48.87
2023-01-01T09:18:52.223Z,49.38
2023-01-01T09:21:22.689Z,48.54
2023-01-01T09:23:51.165Z,48.01
2023-01-01T09:26:19.952Z,48.07
2023-01-01T09:28:48.409Z,47.79
2023-01-01T09:31:16.850Z,46.71
2023-01-01T09:33:46.131Z,46.69
2023-01-01T09:36:17.313Z,45.59
2023-01-01T09:38:51.539Z,45.50
2023-01-01T09:41:29.003Z,45.90
2023-01-01T09:44:09.597Z,44.96
2023-01-01T09:46:38.287Z,46.64
2023-01-01T09:49:16.228Z,46.28
2023-01-01T09:51:55.683Z,46.11
2023-01-01T09:54:30.777Z,46.73
2023-01-01T09:57:01.573Z,46.55
2023-01-01T09:59:30.327Z,46.84
2023-01-01T10:02:05.303Z,47.14
2023-01-01T10:04:53.342Z,48.26
2023-01-01T10:07:31.119Z,47.33
2023-01-01T10:10:11.458Z,49.30
2023-01-01T10:12:49.663Z,48.66
2023-01-01T10:15:22.845Z,48.45
2023-01-01T10:17:56.137Z,48.96
2023-01-01T10:20:29.945Z,48.48
2023-01-01T10:23:05.326Z,48.50
2023-01-01T10:25:36.217Z,48.60
2023-01-01T10:28:09.607Z,48.34
2023-01-01T10:30:38.812Z,47.22
2023-01-01T10:33:14.081Z,46.85
2023-01-01T10:35:47.457Z,47.08
2023-01-01T10:38:24.025Z,48.43
2023-01-01T10:40:58.028Z,47.54
2023-01-01T10:43:27.023Z,47.33
2023-01-01T10:45:58.303Z,47.01
2023-01-01T10:48:30.637Z,48.19
2023-01-01T10:51:03.417Z,47.92
2023-01-01T10:53:34.513Z,48.27
2023-01-01T10:56:13.608Z,48.33
2023-01-01T10:58:45.787Z,48.24
2023-01-01T11:01:22.394Z,47.93
2023-01-01T11:03:56.259Z,47.05
2023-01-01T11:06:26.990Z,46.97
2023-01-01T11:08:57.122Z,47.11
2023-01-01T11:11:34.311Z,46.02
2023-01-01T11:14:06.349Z,47.20
2023-01-01T11:16:39.976Z,46.37
2023-01-01T11:19:10.450Z,46.61
2023-01-01T11:21:47.452Z,47.01
2023-01-01T11:24:22.277Z,47.59
2023-01-01T11:26:55.361Z,47.30
2023-01-01T11:29:29.939Z,48.07
2023-01-01T11:32:01.019Z,47.38
2023-01-01T11:34:33.294Z,46.98
2023-01-01T11:37:25.425Z,47.52
2023-01-01T11:39:56.206Z,47.11
2023-01-01T11:42:29.266Z,47.41
2023-01-01T11:45:00.365Z,47.63
2023-01-01T11:47:32.080Z,47.49
2023-01-01T11:50:05.956Z,46.80
2023-01-01T11:52:40.674Z,47.13
2023-01-01T11:55:20.071Z,46.56
2023-01-01T11:57:59.034Z,45.80
2023-01-01T12:00:30.219Z,46.87
2023-01-01T12:03:02.620Z,45.95
2023-01-01T12:05:43.735Z,45.77
2023-01-01T12:08:20.365Z,46.67
2023-01-01T12:10:53.391Z,46.81
2023-01-01T12:13:28.221Z,45.82
2023-01-01T12:16:07.481Z,45.58
2023-01-01T12:18:45.050Z,46.44
2023-01-01T12:21:19.378Z,46.05
2023-01-01T12:23:48.165Z,45.72
2023-01-01T12:26:23.912Z,45.45
2023-01-01T12:29:30.788Z,46.02
2023-01-01T12:32:08.716Z,45.85
2023-01-01T12:34:45.083Z,47.16
2023-01-01T12:37:22.103Z,46.24
2023-01-01T12:40:25.043Z,46.81
2023-01-01T12:43:03.325Z,46.96
2023-01-01T12:45:52.073Z,46.30
2023-01-01T12:48:35.324Z,46.77
2023-01-01T12:51:15.058Z,46.60
2023-01-01T12:53:53.977Z,46.30
2023-01-01T12:56:32.498Z,48.15
2023-01-01T12:59:08.486Z,46.80
2023-01-01T13:01:42.049Z,48.10
2023-01-01T13:04:16.711Z,47.52
2023-01-01T13:06:51.333Z,47.16
2023-01-01T13:09:24.316Z,48.77
2023-01-01T13:11:57.919Z,49.10
2023-01-01T13:14:27.002Z,49.63
2023-01-01T13:17:00.119Z,49.56
2023-01-01T13:19:34.148Z,50.34
2023-01-01T13:22:42.524Z,49.93
2023-01-01T13:25:29.320Z,50.18
2023-01-01T13:28:06.831Z,50.58
2023-01-01T13:30:50.928Z,50.66
2023-01-01T13:33:29.180Z,50.29
2023-01-01T13:36:33.339Z,49.99
2023-01-01T13:39:02.693Z,49.86
2023-01-01T13:41:41.673Z,49.68
2023-01-01T13:44:21.021Z,49.81
2023-01-01T13:47:15.516Z,49.91
2023-01-01T13:50:05.133Z,50.08
2023-01-01T13:52:59.369Z,50.43
2023-01-01T13:55:48.419Z,50.09
2023-01-01T13:58:51.963Z,49.75
2023-01-01T14:02:04.471Z,50.46
2023-01-01T14:04:40.660Z,49.96
2023-01-01T14:07:50.056Z,50.01
2023-01-01T14:10:23.156Z,49.98
2023-01-01T14:12:53.698Z,51.00
2023-01-01T14:15:28.426Z,50.78
2023-01-01T14:18:00.575Z,50.93
2023-01-01T14:20:35.903Z,51.12
2023-01-01T14:23:10.494Z,51.00
2023-01-01T14:25:42.209Z,50.63
2023-01-01T14:28:20.418Z,50.07
2023-01-01T14:30:49.818Z,50.75
2023-01-01T14:33:27.296Z,50.75
2023-01-01T14:35:56.945Z,50.69
2023-01-01T14:38:28.884Z,50.59
2023-01-01T14:41:03.726Z,50.28
2023-01-01T14:43:32.591Z,50.08
2023-01-01T14:46:07.527Z,49.85
2023-01-01T14:48:45.093Z,50.18
2023-01-01T14:51:16.192Z,50.08
2023-01-01T14:53:48.001Z,51.22
2023-01-01T14:56:24.655Z,51.85
2023-01-01T14:58:53.270Z,51.63
2023-01-01T15:01:26.008Z,51.41
2023-01-01T15:04:11.378Z,51.64
2023-01-01T15:06:42.760Z,51.50
2023-01-01T15:09:17.981Z,52.84
2023-01-01T15:11:46.781Z,52.71
2023-01-01T15:14:32.657Z,52.18
2023-01-01T15:17:02.846Z,52.21
2023-01-01T15:19:31.465Z,52.52
2023-01-01T15:22:00.474Z,51.83
2023-01-01T15:24:30.580Z,52.08
2023-01-01T15:27:00.757Z,52.20
2023-01-01T15:29:31.706Z,52.04
2023-01-01T15:32:02.335Z,52.15
2023-01-01T15:34:32.784Z,51.90
2023-01-01T15:37:11.699Z,51.91
2023-01-01T15:39:49.242Z,51.94
2023-01-01T15:42:32.825Z,51.38
2023-01-01T15:45:21.441Z,51.04
2023-01-01T15:47:50.682Z,51.37
2023-01-01T15:50:26.024Z,50.48
2023-01-01T15:52:58.218Z,50.37
2023-01-01T15:55:32.621Z,50.88
2023-01-01T15:58:01.522Z,51.08
2023-01-01T16:00:31.752Z,50.73
2023-01-01T16:03:04.192Z,50.13
2023-01-01T16:05:33.196Z,49.24
2023-01-01T16:08:03.254Z,49.25
2023-01-01T16:10:33.375Z,48.84
2023-01-01T16:13:01.643Z,49.06
2023-01-01T16:15:30.105Z,48.68
2023-01-01T16:17:58.714Z,48.27
2023-01-01T16:20:27.748Z,48.32
2023-01-01T16:22:56.331Z,48.39
2023-01-01T16:25:24.923Z,47.99
2023-01-01T16:27:54.490Z,47.43
2023-01-01T16:30:26.974Z,47.19
2023-01-01T16:32:55.305Z,48.05
2023-01-01T16:35:23.856Z,48.18
2023-01-01T16:37:52.473Z,48.40
2023-01-01T16:40:20.772Z,49.51
2023-01-01T16:42:49.497Z,50.58
2023-01-01T16:45:20.146Z,49.95
2023-01-01T16:47:48.677Z,50.06
2023-01-01T16:50:16.921Z,50.02
2023-01-01T16:52:45.490Z,49.76
2023-01-01T16:55:14.358Z,49.70
2023-01-01T16:57:43.594Z,49.87
2023-01-01T17:00:13.195Z,49.47
2023-01-01T17:02:43.184Z,49.74
2023-01-01T17:05:12.477Z,50.07
2023-01-01T17:07:41.187Z,49.95
2023-01-01T17:10:10.081Z,49.54
2023-01-01T17:12:38.220Z,49.56
2023-01-01T17:15:08.639Z,49.43
2023-01-01T17:17:36.758Z,49.53
2023-01-01T17:20:16.870Z,49.40
2023-01-01T17:22:51.183Z,49.28
2023-01-01T17:25:19.568Z,49.23
2023-01-01T17:27:48.368Z,49.07
2023-01-01T17:30:17.032Z,48.26
2023-01-01T17:32:45.426Z,47.64
2023-01-01T17:35:15.364Z,47.56
2023-01-01T17:37:43.680Z,47.44
2023-01-01T17:40:12.773Z,47.61
2023-01-01T17:42:40.992Z,48.34
2023-01-01T17:45:10.807Z,48.45
2023-01-01T17:47:39.094Z,48.38
2023-01-01T17:50:08.134Z,48.28
2023-01-01T17:52:37.900Z,48.48
2023-01-01T17:55:07.642Z,47.54
2023-01-01T17:57:35.698Z,47.30
2023-01-01T18:00:05.280Z,46.70
2023-01-01T18:02:41.502Z,46.87
2023-01-01T18:05:10.141Z,47.68
2023-01-01T18:07:40.152Z,45.81
2023-01-01T18:10:09.217Z,46.21
2023-01-01T18:12:37.651Z,45.26
2023-01-01T18:15:07.279Z,47.11
2023-01-01T18:17:35.591Z,46.54
2023-01-01T18:20:04.099Z,46.21
2023-01-01T18:22:33.280Z,46.25
2023-01-01T18:25:06.342Z,46.69
2023-01-01T18:27:35.206Z,46.37
2023-01-01T18:30:04.303Z,46.45
2023-01-01T18:32:33.161Z,46.47
2023-01-01T18:35:01.425Z,46.55
2023-01-01T18:37:31.255Z,45.83
2023-01-01T18:40:00.217Z,46.00
2023-01-01T18:42:40.360Z,45.94
2023-01-01T18:45:16.273Z,46.17
2023-01-01T18:47:46.784Z,46.41
2023-01-01T18:50:35.912Z,47.49
2023-01-01T18:53:18.808Z,47.26
2023-01-01T18:55:47.905Z,46.68
2023-01-01T18:58:20.093Z,46.12
2023-01-01T19:00:49.636Z,45.97
2023-01-01T19:03:22.875Z,46.25
2023-01-01T19:05:51.489Z,46.46
2023-01-01T19:08:22.494Z,46.65
2023-01-01T19:10:53.713Z,47.71
2023-01-01T19:13:25.402Z,48.03
2023-01-01T19:15:58.671Z,47.32
2023-01-01T19:18:31.925Z,47.92
2023-01-01T19:21:03.846Z,49.32
2023-01-01T19:23:33.114Z,49.45
2023-01-01T19:26:04.347Z,49.55
2023-01-01T19:28:36.957Z,49.16
2023-01-01T19:31:08.111Z,49.41
2023-01-01T19:33:37.234Z,50.43
2023-01-01T19:36:05.730Z,50.21
2023-01-01T19:38:34.228Z,51.13
2023-01-01T19:41:03.022Z,51.04
2023-01-01T19:43:31.242Z,51.66
2023-01-01T19:46:00.948Z,51.47
2023-01-01T19:48:30.135Z,51.83
2023-01-01T19:50:58.921Z,51.79
2023-01-01T19:53:27.362Z,52.42
2023-01-01T19:55:55.943Z,52.54
2023-01-01T19:58:24.629Z,52.35
2023-01-01T20:00:53.444Z,52.74
2023-01-01T20:03:52.917Z,52.70
2023-01-01T20:06:12.944Z,53.10
2023-01-01T20:08:41.660Z,52.71
2023-01-01T20:11:10.480Z,52.95
2023-01-01T20:13:38.921Z,52.70
2023-01-01T20:16:07.958Z,52.37
2023-01-01T20:18:37.964Z,52.54
2023-01-01T20:21:26.631Z,52.77
2023-01-01T20:23:55.552Z,52.50
2023-01-01T20:26:26.263Z,52.07
2023-01-01T20:29:12.199Z,51.44
2023-01-01T20:31:42.085Z,51.01
2023-01-01T20:34:12.122Z,50.49
2023-01-01T20:36:58.065Z,50.75
2023-01-01T20:39:26.580Z,49.72
2023-01-01T20:41:56.271Z,50.37
2023-01-01T20:44:24.427Z,50.27
2023-01-01T20:46:52.638Z,49.65
2023-01-01T20:49:22.708Z,50.74
2023-01-01T20:51:53.107Z,49.97
2023-01-01T20:54:22.469Z,49.80
2023-01-01T20:56:50.928Z,50.31
2023-01-01T20:59:37.050Z,50.19
2023-01-01T21:02:06.508Z,49.60
2023-01-01T21:04:38.984Z,49.88
2023-01-01T21:07:09.416Z,49.85
2023-01-01T21:09:37.952Z,49.71
2023-01-01T21:12:07.181Z,50.52
2023-01-01T21:14:36.240Z,50.86
2023-01-01T21:17:17.968Z,50.20
2023-01-01T21:19:47.597Z,51.12
2023-01-01T21:22:16.192Z,50.76
2023-01-01T21:24:47.358Z,51.31
2023-01-01T21:27:24.872Z,51.25
2023-01-01T21:29:57.240Z,51.02
2023-01-01T21:32:29.305Z,50.60
2023-01-01T21:34:59.416Z,50.73
2023-01-01T21:37:48.138Z,50.28
2023-01-01T21:40:34.677Z,50.33
2023-01-01T21:43:25.397Z,49.76
2023-01-01T21:45:54.871Z,50.91
2023-01-01T21:48:28.561Z,50.79
2023-01-01T21:50:58.963Z,50.28
2023-01-01T21:53:30.273Z,50.22
2023-01-01T21:55:58.691Z,49.75
2023-01-01T21:58:46.389Z,50.57
2023-01-01T22:01:22.401Z,51.21
2023-01-01T22:03:53.379Z,51.32
2023-01-01T22:06:23.728Z,50.65
2023-01-01T22:08:52.126Z,50.07
2023-01-01T22:11:26.761Z,49.64
2023-01-01T22:13:56.165Z,48.99
2023-01-01T22:16:29.290Z,49.41
2023-01-01T22:18:57.807Z,49.29
2023-01-01T22:21:27.383Z,49.79
2023-01-01T22:24:00.765Z,51.05
2023-01-01T22:26:32.430Z,50.08
2023-01-01T22:29:04.427Z,50.26
2023-01-01T22:31:36.435Z,50.71
2023-01-01T22:34:06.785Z,51.93
2023-01-01T22:36:38.162Z,51.24
2023-01-01T22:39:14.780Z,50.64
2023-01-01T22:41:43.432Z,50.13
2023-01-01T22:44:13.143Z,49.74
2023-01-01T22:46:42.810Z,49.61
2023-01-01T22:49:20.267Z,50.07
2023-01-01T22:51:54.757Z,50.91
2023-01-01T22:54:23.120Z,50.68
2023-01-01T22:56:51.467Z,50.73
2023-01-01T22:59:19.944Z,51.16
2023-01-01T23:01:48.627Z,50.54
2023-01-01T23:04:17.583Z,51.61
2023-01-01T23:06:45.844Z,52.49
2023-01-01T23:09:15.581Z,51.03
2023-01-01T23:11:44.011Z,51.28
2023-01-01T23:14:31.449Z,51.46
2023-01-01T23:17:03.022Z,52.14
2023-01-01T23:19:31.199Z,51.79
2023-01-01T23:22:00.612Z,51.37
2023-01-01T23:24:31.372Z,52.12
2023-01-01T23:27:00.834Z,51.82
2023-01-01T23:29:32.284Z,51.38
2023-01-01T23:32:01.599Z,51.44
2023-01-01T23:34:30.443Z,50.56
2023-01-01T23:36:59.524Z,50.82
2023-01-01T23:39:29.199Z,51.29
2023-01-01T23:41:57.715Z,50.74
2023-01-01T23:44:25.865Z,50.16
2023-01-01T23:46:54.577Z,50.40
2023-01-01T23:49:23.599Z,50.29
2023-01-01T23:51:52.816Z,50.66
2023-01-01T23:54:21.026Z,50.45
2023-01-01T23:56:50.736Z,50.13
2023-01-01T23:59:19.021Z,49.89
